Flight Track Log - Related Links

Times and Time Zones

All times are in EDT time to prevent confusion due to time zone crossing. See the CSH9304 flight status page for this flight to view local times or setup timezone preferences in your user account.

Time Position Orientation Groundspeed Altitude Reporting Facility
EDT Latitude Longitude Course Direction KTS MPH feet Rate Location/Type
Fri 03:25:00 AM 24.0186 113.8890 41° Northeast  Level Estimated
Fri 03:26:00 AM 24.0880 113.9550 41° Northeast  Level Estimated
Fri 03:27:00 AM 24.1574 114.0210 41° Northeast  Level Estimated
Fri 03:28:00 AM 24.2268 114.0870 41° Northeast  Level Estimated
Fri 03:29:00 AM 24.2961 114.1532 41° Northeast  Level Estimated
Fri 03:30:00 AM 24.3654 114.2194 41° Northeast  Level Estimated
Fri 03:31:00 AM 24.4347 114.2857 41° Northeast  Level Estimated
Fri 03:32:00 AM 24.5040 114.3521 41° Northeast  Level Estimated
Fri 03:33:00 AM 24.5732 114.4185 41° Northeast  Level Estimated
Fri 03:34:00 AM 24.6418 114.4845 41° Northeast  Level Estimated
Fri 03:35:00 AM 24.7104 114.5505 41° Northeast  Level Estimated
Fri 03:36:00 AM 24.7789 114.6165 41° Northeast  Level Estimated
Fri 03:37:00 AM 24.8475 114.6827 41° Northeast  Level Estimated
Fri 03:38:00 AM 24.9159 114.7489 41° Northeast  Level Estimated
Fri 03:39:00 AM 24.9844 114.8152 41° Northeast  Level Estimated
Fri 03:40:00 AM 25.0528 114.8816 41° Northeast  Level Estimated
Fri 03:41:00 AM 25.1212 114.9481 41° Northeast  Level Estimated
Fri 03:42:00 AM 25.1896 115.0146 41° Northeast  Level Estimated
Fri 03:43:00 AM 25.2579 115.0812 41° Northeast  Level Estimated
Fri 03:44:00 AM 25.3263 115.1479 41° Northeast  Level Estimated
Fri 03:45:00 AM 25.3945 115.2146 41° Northeast  Level Estimated
Fri 03:46:00 AM 25.4628 115.2815 41° Northeast  Level Estimated
Fri 03:47:00 AM 25.5310 115.3484 42° Northeast  Level Estimated
Fri 03:48:00 AM 25.5992 115.4153 42° Northeast  Level Estimated
Fri 03:49:00 AM 25.6674 115.4824 42° Northeast  Level Estimated
Fri 03:50:00 AM 25.7355 115.5495 42° Northeast  Level Estimated
Fri 03:51:00 AM 25.8036 115.6167 42° Northeast  Level Estimated
Fri 03:52:00 AM 25.8717 115.6840 42° Northeast  Level Estimated
Fri 03:53:00 AM 25.9397 115.7514 42° Northeast  Level Estimated
Fri 03:54:00 AM 26.0077 115.8188 42° Northeast  Level Estimated
Fri 03:55:00 AM 26.0757 115.8864 42° Northeast  Level Estimated
Fri 03:56:00 AM 26.1436 115.9540 42° Northeast  Level Estimated
Fri 03:57:00 AM 26.2115 116.0216 42° Northeast  Level Estimated
Fri 03:58:00 AM 26.2794 116.0894 42° Northeast  Level Estimated
Fri 03:59:00 AM 26.3472 116.1572 42° Northeast  Level Estimated
Fri 04:00:00 AM 26.4151 116.2252 42° Northeast  Level Estimated
Fri 04:01:00 AM 26.4828 116.2931 42° Northeast  Level Estimated
Fri 04:02:00 AM 26.5506 116.3612 42° Northeast  Level Estimated
Fri 04:03:00 AM 26.6183 116.4294 42° Northeast  Level Estimated
Fri 04:04:00 AM 26.6860 116.4976 42° Northeast  Level Estimated
Fri 04:05:00 AM 26.7537 116.5659 42° Northeast  Level Estimated
Fri 04:06:00 AM 26.8213 116.6343 42° Northeast  Level Estimated
Fri 04:07:00 AM 26.8889 116.7028 42° Northeast  Level Estimated
Fri 04:08:00 AM 26.9564 116.7714 42° Northeast  Level Estimated
Fri 04:09:00 AM 27.0239 116.8400 42° Northeast  Level Estimated
Fri 04:10:00 AM 27.0914 116.9088 42° Northeast  Level Estimated
Fri 04:11:00 AM 27.1589 116.9776 42° Northeast  Level Estimated
Fri 04:12:00 AM 27.2263 117.0464 42° Northeast  Level Estimated
Fri 04:13:00 AM 27.2937 117.1154 42° Northeast  Level Estimated
Fri 04:14:00 AM 27.3610 117.1845 42° Northeast  Level Estimated
Fri 04:15:00 AM 27.4284 117.2536 42° Northeast  Level Estimated
Fri 04:16:00 AM 27.4956 117.3229 42° Northeast  Level Estimated
Fri 04:17:00 AM 27.5629 117.3922 42° Northeast  Level Estimated
Fri 04:18:00 AM 27.6301 117.4616 42° Northeast  Level Estimated
Fri 04:19:00 AM 27.6973 117.5311 42° Northeast  Level Estimated
Fri 04:20:00 AM 27.7644 117.6006 43° Northeast  Level Estimated
Fri 04:21:00 AM 27.8315 117.6703 43° Northeast  Level Estimated
Fri 04:22:00 AM 27.8986 117.7400 43° Northeast  Level Estimated
Fri 04:23:00 AM 27.9657 117.8099 43° Northeast  Level Estimated
Fri 04:24:00 AM 28.0327 117.8798 43° Northeast  Level Estimated
Fri 04:25:00 AM 28.0996 117.9498 43° Northeast  Level Estimated
Fri 04:26:00 AM 28.1666 118.0199 43° Northeast  Level Estimated
Fri 04:27:00 AM 28.2335 118.0900 43° Northeast  Level Estimated
Fri 04:28:00 AM 28.3003 118.1603 43° Northeast  Level Estimated
Fri 04:29:00 AM 28.3672 118.2307 43° Northeast  Level Estimated
Fri 04:30:00 AM 28.4340 118.3011 43° Northeast  Level Estimated
Fri 04:31:00 AM 28.5007 118.3716 43° Northeast  Level Estimated
Fri 04:32:00 AM 28.5674 118.4423 43° Northeast  Level Estimated
Fri 04:33:00 AM 28.6341 118.5130 43° Northeast  Level Estimated
Fri 04:34:00 AM 28.7008 118.5838 43° Northeast  Level Estimated
Fri 04:35:00 AM 28.7674 118.6547 43° Northeast  Level Estimated
Fri 04:36:00 AM 28.8339 118.7256 43° Northeast  Level Estimated
Fri 04:37:00 AM 28.9005 118.7967 43° Northeast  Level Estimated
Fri 04:38:00 AM 28.9670 118.8679 43° Northeast  Level Estimated
Fri 04:39:00 AM 29.0334 118.9391 43° Northeast  Level Estimated
Fri 04:40:00 AM 29.0999 119.0105 43° Northeast  Level Estimated
Fri 04:41:00 AM 29.1662 119.0819 43° Northeast  Level Estimated
Fri 04:42:00 AM 29.2326 119.1535 43° Northeast  Level Estimated
Fri 04:43:00 AM 29.2989 119.2251 43° Northeast  Level Estimated
Fri 04:44:00 AM 29.3652 119.2968 43° Northeast  Level Estimated
Fri 04:45:00 AM 29.4314 119.3686 43° Northeast  Level Estimated
Fri 04:46:00 AM 29.4976 119.4405 43° Northeast  Level Estimated
Fri 04:47:00 AM 29.5637 119.5125 43° Northeast  Level Estimated
Fri 04:48:00 AM 29.6299 119.5846 43° Northeast  Level Estimated
Fri 04:49:00 AM 29.6959 119.6568 43° Northeast  Level Estimated
Fri 04:50:00 AM 29.7620 119.7291 44° Northeast  Level Estimated
Fri 04:51:00 AM 29.8280 119.8014 44° Northeast  Level Estimated
Fri 04:52:00 AM 29.8939 119.8739 44° Northeast  Level Estimated
Fri 04:53:00 AM 29.9598 119.9465 44° Northeast  Level Estimated
Fri 04:54:00 AM 30.0257 120.0191 44° Northeast  Level Estimated
Fri 04:55:00 AM 30.0916 120.0919 44° Northeast  Level Estimated
Fri 04:56:00 AM 30.1574 120.1648 44° Northeast  Level Estimated
Fri 04:57:00 AM 30.2231 120.2377 44° Northeast  Level Estimated
Fri 04:58:00 AM 30.2888 120.3108 44° Northeast  Level Estimated
Fri 04:59:00 AM 30.3545 120.3839 44° Northeast  Level Estimated
Fri 05:00:00 AM 30.4202 120.4572 44° Northeast  Level Estimated
Fri 05:01:00 AM 30.4858 120.5305 44° Northeast  Level Estimated
Fri 05:02:00 AM 30.5513 120.6040 44° Northeast  Level Estimated
Fri 05:03:00 AM 30.6244 120.6860 44° Northeast  Level Estimated
Fri 05:04:00 AM 30.6974 120.7682 44° Northeast  Level Estimated
Fri 05:05:00 AM 30.7703 120.8505 44° Northeast  Level Estimated
Fri 05:06:00 AM 30.8433 120.9329 44° Northeast  Level Estimated
Fri 05:07:00 AM 30.9161 121.0154 44° Northeast  Level Estimated
Fri 05:08:00 AM 30.9862 121.0950 44° Northeast  Level Estimated
Fri 05:09:00 AM 31.0563 121.1747 44° Northeast  Level Estimated
Fri 05:10:00 AM 31.1263 121.2546 44° Northeast  Level Estimated
Fri 05:11:00 AM 31.1963 121.3345 44° Northeast  Level Estimated
Fri 05:12:00 AM 31.1979 121.3363 44° Northeast  Level Estimated
Fri 05:13:00 AM 31.1979 121.3363 North  Level Estimated
Fri 05:14:00 AM 31.1979 121.3363 North  Level Estimated
Fri 05:15:00 AM 31.1979 121.3363 North  Level Estimated

Login

Don't have an account? Register now (free) for customized features, flight alerts, and more!